sensor_id;sensor_type;location;lat;lon;timestamp;P1;durP1;ratioP1;P2;durP2;ratioP2
15831;SDS011;8016;49.928;9.372;2022-08-01T00:00:37;6.07;;;4.53;;
15831;SDS011;8016;49.928;9.372;2022-08-01T00:03:03;5.93;;;5.33;;
15831;SDS011;8016;49.928;9.372;2022-08-01T00:05:29;5.27;;;4.77;;
15831;SDS011;8016;49.928;9.372;2022-08-01T00:07:55;4.93;;;4.60;;
15831;SDS011;8016;49.928;9.372;2022-08-01T00:10:21;5.10;;;4.70;;
15831;SDS011;8016;49.928;9.372;2022-08-01T00:12:47;4.83;;;4.43;;
15831;SDS011;8016;49.928;9.372;2022-08-01T00:15:15;4.33;;;4.03;;
15831;SDS011;8016;49.928;9.372;2022-08-01T00:17:41;4.40;;;4.10;;
15831;SDS011;8016;49.928;9.372;2022-08-01T00:20:08;5.70;;;4.47;;
15831;SDS011;8016;49.928;9.372;2022-08-01T00:22:34;5.90;;;4.33;;
15831;SDS011;8016;49.928;9.372;2022-08-01T00:25:01;5.57;;;4.17;;
15831;SDS011;8016;49.928;9.372;2022-08-01T00:27:27;6.63;;;4.63;;
15831;SDS011;8016;49.928;9.372;2022-08-01T00:29:53;4.40;;;4.00;;
15831;SDS011;8016;49.928;9.372;2022-08-01T00:32:19;5.63;;;3.83;;
15831;SDS011;8016;49.928;9.372;2022-08-01T00:34:45;4.67;;;4.20;;
15831;SDS011;8016;49.928;9.372;2022-08-01T00:37:11;4.93;;;4.43;;
15831;SDS011;8016;49.928;9.372;2022-08-01T00:39:37;4.37;;;4.07;;
15831;SDS011;8016;49.928;9.372;2022-08-01T00:42:06;5.17;;;4.40;;
15831;SDS011;8016;49.928;9.372;2022-08-01T00:44:33;4.37;;;3.97;;
15831;SDS011;8016;49.928;9.372;2022-08-01T00:46:59;4.50;;;4.10;;
15831;SDS011;8016;49.928;9.372;2022-08-01T05:26:33;2.67;;;2.23;;
15831;SDS011;8016;49.928;9.372;2022-08-01T05:28:59;2.77;;;2.00;;
15831;SDS011;8016;49.928;9.372;2022-08-01T05:31:25;5.70;;;2.43;;
15831;SDS011;8016;49.928;9.372;2022-08-01T05:33:51;3.70;;;3.00;;
15831;SDS011;8016;49.928;9.372;2022-08-01T05:36:17;2.63;;;2.00;;
15831;SDS011;8016;49.928;9.372;2022-08-01T05:38:43;3.57;;;2.17;;
15831;SDS011;8016;49.928;9.372;2022-08-01T05:41:09;2.90;;;1.77;;
15831;SDS011;8016;49.928;9.372;2022-08-01T05:43:35;4.27;;;1.50;;
15831;SDS011;8016;49.928;9.372;2022-08-01T05:46:01;1.67;;;1.53;;
15831;SDS011;8016;49.928;9.372;2022-08-01T05:48:27;2.37;;;1.70;;
15831;SDS011;8016;49.928;9.372;2022-08-01T05:50:54;2.03;;;1.20;;
15831;SDS011;8016;49.928;9.372;2022-08-01T05:53:20;2.03;;;1.70;;
15831;SDS011;8016;49.928;9.372;2022-08-01T05:55:46;2.13;;;1.90;;
15831;SDS011;8016;49.928;9.372;2022-08-01T05:58:11;3.17;;;1.30;;
15831;SDS011;8016;49.928;9.372;2022-08-01T06:00:38;2.53;;;1.63;;
15831;SDS011;8016;49.928;9.372;2022-08-01T06:03:04;4.20;;;1.70;;
15831;SDS011;8016;49.928;9.372;2022-08-01T06:05:30;4.27;;;1.67;;
15831;SDS011;8016;49.928;9.372;2022-08-01T06:07:56;2.23;;;1.87;;
15831;SDS011;8016;49.928;9.372;2022-08-01T06:10:23;4.37;;;1.70;;
15831;SDS011;8016;49.928;9.372;2022-08-01T06:12:49;5.07;;;1.67;;
15831;SDS011;8016;49.928;9.372;2022-08-01T06:15:14;2.33;;;1.50;;
15831;SDS011;8016;49.928;9.372;2022-08-01T06:17:40;2.13;;;1.80;;
15831;SDS011;8016;49.928;9.372;2022-08-01T06:20:07;3.97;;;1.77;;
15831;SDS011;8016;49.928;9.372;2022-08-01T06:22:33;2.63;;;2.23;;
15831;SDS011;8016;49.928;9.372;2022-08-01T06:24:59;2.50;;;1.77;;
15831;SDS011;8016;49.928;9.372;2022-08-01T06:27:25;2.00;;;1.60;;
15831;SDS011;8016;49.928;9.372;2022-08-01T06:29:51;2.63;;;1.90;;
15831;SDS011;8016;49.928;9.372;2022-08-01T06:32:20;2.03;;;1.80;;
15831;SDS011;8016;49.928;9.372;2022-08-01T06:34:51;2.67;;;1.70;;
15831;SDS011;8016;49.928;9.372;2022-08-01T06:37:17;2.07;;;1.80;;
15831;SDS011;8016;49.928;9.372;2022-08-01T06:39:43;2.40;;;1.83;;
15831;SDS011;8016;49.928;9.372;2022-08-01T06:42:09;3.60;;;1.70;;
15831;SDS011;8016;49.928;9.372;2022-08-01T06:44:35;5.23;;;1.70;;
15831;SDS011;8016;49.928;9.372;2022-08-01T06:47:01;6.13;;;2.10;;
15831;SDS011;8016;49.928;9.372;2022-08-01T06:49:27;3.30;;;1.80;;
15831;SDS011;8016;49.928;9.372;2022-08-01T06:51:56;2.30;;;1.57;;
15831;SDS011;8016;49.928;9.372;2022-08-01T06:54:22;5.93;;;2.10;;
15831;SDS011;8016;49.928;9.372;2022-08-01T06:56:48;3.93;;;2.10;;
15831;SDS011;8016;49.928;9.372;2022-08-01T06:59:14;4.60;;;1.57;;
15831;SDS011;8016;49.928;9.372;2022-08-01T07:01:40;2.97;;;1.70;;
15831;SDS011;8016;49.928;9.372;2022-08-01T07:04:06;6.00;;;2.23;;
15831;SDS011;8016;49.928;9.372;2022-08-01T07:06:32;3.43;;;1.63;;
15831;SDS011;8016;49.928;9.372;2022-08-01T07:08:58;2.47;;;2.17;;
15831;SDS011;8016;49.928;9.372;2022-08-01T07:11:25;4.87;;;2.27;;
15831;SDS011;8016;49.928;9.372;2022-08-01T07:13:51;2.33;;;1.90;;
15831;SDS011;8016;49.928;9.372;2022-08-01T07:16:17;3.27;;;2.20;;
15831;SDS011;8016;49.928;9.372;2022-08-01T07:18:43;2.57;;;2.10;;
15831;SDS011;8016;49.928;9.372;2022-08-01T07:21:09;3.77;;;2.07;;
15831;SDS011;8016;49.928;9.372;2022-08-01T07:23:36;3.40;;;2.40;;
15831;SDS011;8016;49.928;9.372;2022-08-01T07:26:02;2.03;;;1.77;;
15831;SDS011;8016;49.928;9.372;2022-08-01T07:28:28;3.20;;;2.00;;
15831;SDS011;8016;49.928;9.372;2022-08-01T07:30:54;3.13;;;2.07;;
15831;SDS011;8016;49.928;9.372;2022-08-01T07:33:23;4.60;;;1.97;;
15831;SDS011;8016;49.928;9.372;2022-08-01T07:35:49;4.47;;;1.93;;
15831;SDS011;8016;49.928;9.372;2022-08-01T07:38:15;2.20;;;1.90;;
15831;SDS011;8016;49.928;9.372;2022-08-01T07:40:42;2.73;;;1.93;;
15831;SDS011;8016;49.928;9.372;2022-08-01T07:43:08;1.80;;;1.70;;
15831;SDS011;8016;49.928;9.372;2022-08-01T07:45:34;3.43;;;2.10;;
15831;SDS011;8016;49.928;9.372;2022-08-01T07:48:03;2.77;;;1.87;;
15831;SDS011;8016;49.928;9.372;2022-08-01T07:50:30;2.30;;;2.10;;
15831;SDS011;8016;49.928;9.372;2022-08-01T07:52:56;4.57;;;1.60;;
15831;SDS011;8016;49.928;9.372;2022-08-01T07:55:22;2.77;;;2.37;;
15831;SDS011;8016;49.928;9.372;2022-08-01T07:57:48;2.77;;;2.30;;
15831;SDS011;8016;49.928;9.372;2022-08-01T08:00:14;2.97;;;2.27;;
15831;SDS011;8016;49.928;9.372;2022-08-01T08:02:40;4.07;;;2.17;;
15831;SDS011;8016;49.928;9.372;2022-08-01T08:05:07;2.47;;;2.23;;
15831;SDS011;8016;49.928;9.372;2022-08-01T08:07:33;3.10;;;2.70;;
15831;SDS011;8016;49.928;9.372;2022-08-01T08:09:59;2.77;;;2.57;;
15831;SDS011;8016;49.928;9.372;2022-08-01T08:12:25;3.03;;;2.73;;
15831;SDS011;8016;49.928;9.372;2022-08-01T08:14:51;3.13;;;2.83;;
15831;SDS011;8016;49.928;9.372;2022-08-01T08:17:17;4.60;;;2.70;;
15831;SDS011;8016;49.928;9.372;2022-08-01T08:19:43;3.00;;;2.70;;
15831;SDS011;8016;49.928;9.372;2022-08-01T08:22:09;3.17;;;2.97;;
15831;SDS011;8016;49.928;9.372;2022-08-01T08:24:36;2.83;;;2.63;;
15831;SDS011;8016;49.928;9.372;2022-08-01T08:27:02;2.70;;;2.50;;
15831;SDS011;8016;49.928;9.372;2022-08-01T08:29:29;2.83;;;2.63;;
15831;SDS011;8016;49.928;9.372;2022-08-01T08:31:57;3.00;;;2.70;;
15831;SDS011;8016;49.928;9.372;2022-08-01T08:34:23;2.40;;;2.20;;
15831;SDS011;8016;49.928;9.372;2022-08-01T08:36:50;2.57;;;2.37;;
15831;SDS011;8016;49.928;9.372;2022-08-01T08:39:16;2.50;;;2.30;;
15831;SDS011;8016;49.928;9.372;2022-08-01T08:41:42;2.77;;;2.57;;
15831;SDS011;8016;49.928;9.372;2022-08-01T08:44:08;4.27;;;2.33;;
15831;SDS011;8016;49.928;9.372;2022-08-01T08:46:38;2.43;;;2.23;;
15831;SDS011;8016;49.928;9.372;2022-08-01T08:49:05;2.43;;;2.23;;
15831;SDS011;8016;49.928;9.372;2022-08-01T08:51:32;2.40;;;2.20;;
15831;SDS011;8016;49.928;9.372;2022-08-01T08:53:59;3.03;;;2.20;;
15831;SDS011;8016;49.928;9.372;2022-08-01T08:56:26;2.53;;;2.07;;
15831;SDS011;8016;49.928;9.372;2022-08-01T08:58:55;2.17;;;1.97;;
15831;SDS011;8016;49.928;9.372;2022-08-01T09:01:21;2.10;;;1.90;;
15831;SDS011;8016;49.928;9.372;2022-08-01T09:03:48;1.60;;;1.50;;
15831;SDS011;8016;49.928;9.372;2022-08-01T09:06:14;2.77;;;1.90;;
15831;SDS011;8016;49.928;9.372;2022-08-01T09:08:40;2.00;;;1.90;;
15831;SDS011;8016;49.928;9.372;2022-08-01T09:11:06;2.47;;;2.07;;
15831;SDS011;8016;49.928;9.372;2022-08-01T09:13:32;2.03;;;1.77;;
15831;SDS011;8016;49.928;9.372;2022-08-01T09:15:58;3.63;;;1.50;;
15831;SDS011;8016;49.928;9.372;2022-08-01T09:21:15;2.17;;;1.97;;
15831;SDS011;8016;49.928;9.372;2022-08-01T09:26:09;1.90;;;1.70;;
15831;SDS011;8016;49.928;9.372;2022-08-01T09:28:35;2.97;;;2.20;;
15831;SDS011;8016;49.928;9.372;2022-08-01T09:31:05;2.13;;;1.93;;
15831;SDS011;8016;49.928;9.372;2022-08-01T09:33:52;2.07;;;1.90;;
15831;SDS011;8016;49.928;9.372;2022-08-01T09:36:20;2.23;;;1.90;;
15831;SDS011;8016;49.928;9.372;2022-08-01T09:38:46;3.67;;;2.30;;
15831;SDS011;8016;49.928;9.372;2022-08-01T09:41:12;2.07;;;1.87;;
15831;SDS011;8016;49.928;9.372;2022-08-01T09:43:38;2.33;;;1.97;;
15831;SDS011;8016;49.928;9.372;2022-08-01T09:46:10;2.10;;;2.00;;
15831;SDS011;8016;49.928;9.372;2022-08-01T09:48:37;2.60;;;1.90;;
15831;SDS011;8016;49.928;9.372;2022-08-01T09:51:04;1.90;;;1.80;;
15831;SDS011;8016;49.928;9.372;2022-08-01T09:53:42;2.03;;;1.92;;
15831;SDS011;8016;49.928;9.372;2022-08-01T09:56:09;2.35;;;1.60;;
15831;SDS011;8016;49.928;9.372;2022-08-01T10:01:44;3.15;;;1.85;;
15831;SDS011;8016;49.928;9.372;2022-08-01T10:04:14;2.22;;;1.77;;
15831;SDS011;8016;49.928;9.372;2022-08-01T10:06:41;3.63;;;1.87;;
15831;SDS011;8016;49.928;9.372;2022-08-01T10:09:09;1.95;;;1.85;;
15831;SDS011;8016;49.928;9.372;2022-08-01T10:11:36;2.67;;;2.20;;
15831;SDS011;8016;49.928;9.372;2022-08-01T10:14:04;2.47;;;2.28;;
15831;SDS011;8016;49.928;9.372;2022-08-01T10:16:30;3.15;;;2.00;;
15831;SDS011;8016;49.928;9.372;2022-08-01T10:18:57;2.22;;;2.03;;
15831;SDS011;8016;49.928;9.372;2022-08-01T10:21:25;2.85;;;2.08;;
15831;SDS011;8016;49.928;9.372;2022-08-01T10:23:51;3.28;;;2.15;;
15831;SDS011;8016;49.928;9.372;2022-08-01T10:26:18;2.13;;;2.03;;
15831;SDS011;8016;49.928;9.372;2022-08-01T10:28:44;2.40;;;2.00;;
15831;SDS011;8016;49.928;9.372;2022-08-01T10:31:13;2.50;;;2.30;;
15831;SDS011;8016;49.928;9.372;2022-08-01T10:33:40;2.30;;;2.10;;
15831;SDS011;8016;49.928;9.372;2022-08-01T10:36:07;3.88;;;2.33;;
15831;SDS011;8016;49.928;9.372;2022-08-01T10:38:34;2.33;;;2.13;;
15831;SDS011;8016;49.928;9.372;2022-08-01T10:41:00;3.38;;;2.25;;
15831;SDS011;8016;49.928;9.372;2022-08-01T10:43:27;2.30;;;2.10;;
15831;SDS011;8016;49.928;9.372;2022-08-01T10:45:53;2.38;;;2.10;;
15831;SDS011;8016;49.928;9.372;2022-08-01T10:51:04;2.45;;;2.22;;
15831;SDS011;8016;49.928;9.372;2022-08-01T10:53:30;2.10;;;1.90;;
15831;SDS011;8016;49.928;9.372;2022-08-01T10:56:02;2.63;;;2.42;;
15831;SDS011;8016;49.928;9.372;2022-08-01T10:58:31;3.20;;;2.40;;
15831;SDS011;8016;49.928;9.372;2022-08-01T11:03:44;2.50;;;2.30;;
15831;SDS011;8016;49.928;9.372;2022-08-01T11:06:17;2.80;;;2.50;;
15831;SDS011;8016;49.928;9.372;2022-08-01T11:08:49;2.70;;;2.50;;
15831;SDS011;8016;49.928;9.372;2022-08-01T11:11:16;3.63;;;2.20;;
15831;SDS011;8016;49.928;9.372;2022-08-01T11:16:38;2.40;;;2.20;;
15831;SDS011;8016;49.928;9.372;2022-08-01T11:19:05;2.33;;;2.13;;
15831;SDS011;8016;49.928;9.372;2022-08-01T11:27:15;3.72;;;2.00;;
15831;SDS011;8016;49.928;9.372;2022-08-01T11:29:41;2.20;;;2.00;;
15831;SDS011;8016;49.928;9.372;2022-08-01T11:32:26;2.15;;;1.80;;
15831;SDS011;8016;49.928;9.372;2022-08-01T11:34:53;2.15;;;1.85;;
15831;SDS011;8016;49.928;9.372;2022-08-01T11:37:23;2.00;;;1.90;;
15831;SDS011;8016;49.928;9.372;2022-08-01T11:42:35;2.50;;;2.30;;
15831;SDS011;8016;49.928;9.372;2022-08-01T11:45:01;2.22;;;2.03;;
15831;SDS011;8016;49.928;9.372;2022-08-01T11:47:42;2.30;;;2.10;;
15831;SDS011;8016;49.928;9.372;2022-08-01T11:50:29;2.10;;;2.00;;
15831;SDS011;8016;49.928;9.372;2022-08-01T11:52:59;2.20;;;2.00;;
15831;SDS011;8016;49.928;9.372;2022-08-01T11:55:25;4.25;;;2.45;;
15831;SDS011;8016;49.928;9.372;2022-08-01T11:57:58;2.40;;;2.20;;
15831;SDS011;8016;49.928;9.372;2022-08-01T12:00:24;2.90;;;2.22;;
15831;SDS011;8016;49.928;9.372;2022-08-01T12:03:00;2.65;;;2.10;;
15831;SDS011;8016;49.928;9.372;2022-08-01T12:05:27;2.20;;;2.00;;
15831;SDS011;8016;49.928;9.372;2022-08-01T12:07:54;2.20;;;2.00;;
15831;SDS011;8016;49.928;9.372;2022-08-01T12:10:21;2.10;;;1.95;;
15831;SDS011;8016;49.928;9.372;2022-08-01T12:13:00;2.22;;;2.03;;
15831;SDS011;8016;49.928;9.372;2022-08-01T12:15:31;2.38;;;2.15;;
15831;SDS011;8016;49.928;9.372;2022-08-01T12:17:58;5.50;;;2.63;;
15831;SDS011;8016;49.928;9.372;2022-08-01T12:20:34;2.50;;;2.30;;
15831;SDS011;8016;49.928;9.372;2022-08-01T12:23:01;2.42;;;2.22;;
15831;SDS011;8016;49.928;9.372;2022-08-01T12:25:28;3.63;;;2.53;;
15831;SDS011;8016;49.928;9.372;2022-08-01T12:27:54;3.42;;;2.53;;
15831;SDS011;8016;49.928;9.372;2022-08-01T12:30:22;2.38;;;2.17;;
15831;SDS011;8016;49.928;9.372;2022-08-01T12:32:49;2.58;;;2.38;;
15831;SDS011;8016;49.928;9.372;2022-08-01T12:35:18;4.50;;;2.20;;
15831;SDS011;8016;49.928;9.372;2022-08-01T12:37:48;2.63;;;2.42;;
15831;SDS011;8016;49.928;9.372;2022-08-01T12:40:24;3.65;;;2.67;;
15831;SDS011;8016;49.928;9.372;2022-08-01T12:42:52;2.85;;;2.40;;
15831;SDS011;8016;49.928;9.372;2022-08-01T12:45:19;2.35;;;2.10;;
15831;SDS011;8016;49.928;9.372;2022-08-01T12:47:46;2.22;;;2.03;;
15831;SDS011;8016;49.928;9.372;2022-08-01T12:50:13;3.95;;;2.10;;
15831;SDS011;8016;49.928;9.372;2022-08-01T12:52:39;2.60;;;2.05;;
15831;SDS011;8016;49.928;9.372;2022-08-01T12:55:07;2.00;;;1.90;;
15831;SDS011;8016;49.928;9.372;2022-08-01T12:57:36;2.03;;;1.80;;
15831;SDS011;8016;49.928;9.372;2022-08-01T13:02:32;3.08;;;2.15;;
15831;SDS011;8016;49.928;9.372;2022-08-01T13:04:58;2.45;;;2.25;;
15831;SDS011;8016;49.928;9.372;2022-08-01T13:07:34;2.30;;;2.08;;
15831;SDS011;8016;49.928;9.372;2022-08-01T13:10:00;2.35;;;2.15;;
15831;SDS011;8016;49.928;9.372;2022-08-01T13:12:26;1.80;;;1.70;;
15831;SDS011;8016;49.928;9.372;2022-08-01T13:14:52;2.00;;;1.90;;
15831;SDS011;8016;49.928;9.372;2022-08-01T13:17:36;2.78;;;1.80;;
15831;SDS011;8016;49.928;9.372;2022-08-01T13:20:05;1.90;;;1.80;;
15831;SDS011;8016;49.928;9.372;2022-08-01T13:22:35;1.85;;;1.73;;
15831;SDS011;8016;49.928;9.372;2022-08-01T13:25:14;3.88;;;1.98;;
15831;SDS011;8016;49.928;9.372;2022-08-01T13:27:40;3.10;;;2.00;;
15831;SDS011;8016;49.928;9.372;2022-08-01T13:30:13;2.40;;;1.90;;
15831;SDS011;8016;49.928;9.372;2022-08-01T13:32:39;1.40;;;1.30;;
15831;SDS011;8016;49.928;9.372;2022-08-01T13:35:07;1.58;;;1.48;;
15831;SDS011;8016;49.928;9.372;2022-08-01T13:37:34;2.70;;;1.50;;
15831;SDS011;8016;49.928;9.372;2022-08-01T13:40:00;2.08;;;1.80;;
15831;SDS011;8016;49.928;9.372;2022-08-01T13:42:26;1.85;;;1.60;;
15831;SDS011;8016;49.928;9.372;2022-08-01T13:44:54;1.63;;;1.48;;
15831;SDS011;8016;49.928;9.372;2022-08-01T13:47:20;1.85;;;1.75;;
15831;SDS011;8016;49.928;9.372;2022-08-01T13:49:45;1.80;;;1.65;;
15831;SDS011;8016;49.928;9.372;2022-08-01T13:52:11;1.73;;;1.63;;
15831;SDS011;8016;49.928;9.372;2022-08-01T13:54:37;2.50;;;1.60;;
15831;SDS011;8016;49.928;9.372;2022-08-01T13:57:03;2.05;;;1.77;;
15831;SDS011;8016;49.928;9.372;2022-08-01T13:59:30;1.92;;;1.73;;
15831;SDS011;8016;49.928;9.372;2022-08-01T14:01:56;2.28;;;1.98;;
15831;SDS011;8016;49.928;9.372;2022-08-01T14:04:22;1.98;;;1.77;;
15831;SDS011;8016;49.928;9.372;2022-08-01T14:06:48;2.20;;;2.05;;
15831;SDS011;8016;49.928;9.372;2022-08-01T14:09:14;1.80;;;1.70;;
15831;SDS011;8016;49.928;9.372;2022-08-01T14:11:42;2.22;;;1.75;;
15831;SDS011;8016;49.928;9.372;2022-08-01T14:14:08;1.80;;;1.70;;
15831;SDS011;8016;49.928;9.372;2022-08-01T14:16:34;2.97;;;1.63;;
15831;SDS011;8016;49.928;9.372;2022-08-01T14:19:02;1.83;;;1.52;;
15831;SDS011;8016;49.928;9.372;2022-08-01T14:21:28;2.00;;;1.90;;
15831;SDS011;8016;49.928;9.372;2022-08-01T14:23:54;1.92;;;1.80;;
15831;SDS011;8016;49.928;9.372;2022-08-01T14:26:20;1.88;;;1.50;;
15831;SDS011;8016;49.928;9.372;2022-08-01T14:28:46;1.92;;;1.80;;
15831;SDS011;8016;49.928;9.372;2022-08-01T14:31:12;3.83;;;1.88;;
15831;SDS011;8016;49.928;9.372;2022-08-01T14:33:38;2.58;;;1.83;;
15831;SDS011;8016;49.928;9.372;2022-08-01T14:36:04;2.05;;;1.90;;
15831;SDS011;8016;49.928;9.372;2022-08-01T14:38:31;1.92;;;1.83;;
15831;SDS011;8016;49.928;9.372;2022-08-01T14:40:57;3.40;;;1.85;;
15831;SDS011;8016;49.928;9.372;2022-08-01T14:43:24;2.72;;;1.77;;
15831;SDS011;8016;49.928;9.372;2022-08-01T14:45:51;2.50;;;1.83;;
15831;SDS011;8016;49.928;9.372;2022-08-01T14:48:19;3.63;;;1.83;;
15831;SDS011;8016;49.928;9.372;2022-08-01T14:50:45;2.45;;;1.75;;
15831;SDS011;8016;49.928;9.372;2022-08-01T14:53:11;3.20;;;1.70;;
15831;SDS011;8016;49.928;9.372;2022-08-01T14:55:37;2.00;;;1.58;;
15831;SDS011;8016;49.928;9.372;2022-08-01T14:58:03;1.63;;;1.45;;
15831;SDS011;8016;49.928;9.372;2022-08-01T15:00:29;4.00;;;1.83;;
15831;SDS011;8016;49.928;9.372;2022-08-01T15:02:55;3.58;;;1.65;;
15831;SDS011;8016;49.928;9.372;2022-08-01T15:05:21;2.75;;;2.20;;
15831;SDS011;8016;49.928;9.372;2022-08-01T15:07:47;3.78;;;2.20;;
15831;SDS011;8016;49.928;9.372;2022-08-01T15:10:13;1.90;;;1.80;;
15831;SDS011;8016;49.928;9.372;2022-08-01T15:12:41;1.90;;;1.80;;
15831;SDS011;8016;49.928;9.372;2022-08-01T15:15:08;2.22;;;1.90;;
15831;SDS011;8016;49.928;9.372;2022-08-01T15:17:34;1.98;;;1.80;;
15831;SDS011;8016;49.928;9.372;2022-08-01T15:20:01;2.30;;;1.95;;
15831;SDS011;8016;49.928;9.372;2022-08-01T15:22:28;2.35;;;1.50;;
15831;SDS011;8016;49.928;9.372;2022-08-01T15:24:54;2.72;;;1.90;;
15831;SDS011;8016;49.928;9.372;2022-08-01T15:27:21;2.63;;;1.90;;
15831;SDS011;8016;49.928;9.372;2022-08-01T15:29:47;2.38;;;1.98;;
15831;SDS011;8016;49.928;9.372;2022-08-01T15:32:13;3.05;;;1.92;;
15831;SDS011;8016;49.928;9.372;2022-08-01T15:34:40;2.20;;;2.00;;
15831;SDS011;8016;49.928;9.372;2022-08-01T15:37:06;1.70;;;1.60;;
15831;SDS011;8016;49.928;9.372;2022-08-01T15:39:32;3.05;;;1.73;;
15831;SDS011;8016;49.928;9.372;2022-08-01T15:41:59;3.33;;;2.03;;
15831;SDS011;8016;49.928;9.372;2022-08-01T15:44:25;1.90;;;1.70;;
15831;SDS011;8016;49.928;9.372;2022-08-01T15:46:51;2.58;;;1.80;;
15831;SDS011;8016;49.928;9.372;2022-08-01T15:49:17;6.72;;;2.10;;
15831;SDS011;8016;49.928;9.372;2022-08-01T15:51:45;2.80;;;1.55;;
15831;SDS011;8016;49.928;9.372;2022-08-01T15:54:11;2.38;;;1.80;;
15831;SDS011;8016;49.928;9.372;2022-08-01T15:56:37;1.90;;;1.50;;
15831;SDS011;8016;49.928;9.372;2022-08-01T15:59:03;2.05;;;1.80;;
15831;SDS011;8016;49.928;9.372;2022-08-01T16:01:30;2.03;;;1.83;;
15831;SDS011;8016;49.928;9.372;2022-08-01T16:03:57;3.97;;;2.20;;
15831;SDS011;8016;49.928;9.372;2022-08-01T16:06:23;3.40;;;2.25;;
15831;SDS011;8016;49.928;9.372;2022-08-01T16:08:49;2.50;;;1.80;;
15831;SDS011;8016;49.928;9.372;2022-08-01T16:11:16;3.30;;;1.63;;
15831;SDS011;8016;49.928;9.372;2022-08-01T16:13:42;1.80;;;1.70;;
15831;SDS011;8016;49.928;9.372;2022-08-01T16:16:08;1.80;;;1.70;;
15831;SDS011;8016;49.928;9.372;2022-08-01T16:18:35;2.67;;;1.60;;
15831;SDS011;8016;49.928;9.372;2022-08-01T16:21:01;3.85;;;1.67;;
15831;SDS011;8016;49.928;9.372;2022-08-01T16:23:27;1.80;;;1.70;;
15831;SDS011;8016;49.928;9.372;2022-08-01T16:25:53;4.05;;;1.45;;
15831;SDS011;8016;49.928;9.372;2022-08-01T16:28:19;2.65;;;1.70;;
15831;SDS011;8016;49.928;9.372;2022-08-01T16:30:46;2.45;;;1.77;;
15831;SDS011;8016;49.928;9.372;2022-08-01T16:33:12;3.67;;;1.52;;
15831;SDS011;8016;49.928;9.372;2022-08-01T16:35:38;2.35;;;2.10;;
15831;SDS011;8016;49.928;9.372;2022-08-01T16:38:07;3.20;;;1.48;;
15831;SDS011;8016;49.928;9.372;2022-08-01T16:40:33;3.03;;;1.77;;
15831;SDS011;8016;49.928;9.372;2022-08-01T16:42:59;2.58;;;2.17;;
15831;SDS011;8016;49.928;9.372;2022-08-01T16:45:25;3.13;;;2.85;;
15831;SDS011;8016;49.928;9.372;2022-08-01T16:47:51;3.33;;;2.97;;
15831;SDS011;8016;49.928;9.372;2022-08-01T16:50:17;2.60;;;2.40;;
15831;SDS011;8016;49.928;9.372;2022-08-01T16:52:43;4.00;;;2.90;;
15831;SDS011;8016;49.928;9.372;2022-08-01T16:55:09;3.00;;;2.67;;
15831;SDS011;8016;49.928;9.372;2022-08-01T16:57:35;2.28;;;2.13;;
15831;SDS011;8016;49.928;9.372;2022-08-01T17:00:06;2.72;;;2.38;;
15831;SDS011;8016;49.928;9.372;2022-08-01T17:02:33;3.85;;;2.80;;
15831;SDS011;8016;49.928;9.372;2022-08-01T17:04:59;3.40;;;2.72;;
15831;SDS011;8016;49.928;9.372;2022-08-01T17:07:25;3.00;;;2.80;;
15831;SDS011;8016;49.928;9.372;2022-08-01T17:09:51;3.42;;;2.80;;
15831;SDS011;8016;49.928;9.372;2022-08-01T17:12:17;3.60;;;2.58;;
15831;SDS011;8016;49.928;9.372;2022-08-01T17:14:43;3.17;;;2.65;;
15831;SDS011;8016;49.928;9.372;2022-08-01T17:17:09;4.72;;;2.80;;
15831;SDS011;8016;49.928;9.372;2022-08-01T17:19:35;2.30;;;2.10;;
15831;SDS011;8016;49.928;9.372;2022-08-01T17:22:01;3.33;;;2.00;;
15831;SDS011;8016;49.928;9.372;2022-08-01T17:24:27;2.67;;;2.20;;
15831;SDS011;8016;49.928;9.372;2022-08-01T17:26:53;1.98;;;1.85;;
15831;SDS011;8016;49.928;9.372;2022-08-01T17:29:19;2.10;;;1.90;;
15831;SDS011;8016;49.928;9.372;2022-08-01T17:31:45;3.92;;;1.75;;
15831;SDS011;8016;49.928;9.372;2022-08-01T17:34:11;2.30;;;2.05;;
15831;SDS011;8016;49.928;9.372;2022-08-01T17:36:37;1.95;;;1.75;;
15831;SDS011;8016;49.928;9.372;2022-08-01T17:39:03;2.85;;;1.83;;
15831;SDS011;8016;49.928;9.372;2022-08-01T17:41:30;4.90;;;2.45;;
15831;SDS011;8016;49.928;9.372;2022-08-01T17:43:56;7.90;;;2.97;;
15831;SDS011;8016;49.928;9.372;2022-08-01T17:46:22;4.38;;;2.90;;
15831;SDS011;8016;49.928;9.372;2022-08-01T17:48:48;3.88;;;1.88;;
15831;SDS011;8016;49.928;9.372;2022-08-01T17:51:14;4.32;;;2.00;;
15831;SDS011;8016;49.928;9.372;2022-08-01T17:53:40;2.92;;;2.20;;
15831;SDS011;8016;49.928;9.372;2022-08-01T17:56:06;3.10;;;2.38;;
15831;SDS011;8016;49.928;9.372;2022-08-01T17:58:32;3.38;;;2.00;;
15831;SDS011;8016;49.928;9.372;2022-08-01T18:00:58;2.08;;;1.90;;
15831;SDS011;8016;49.928;9.372;2022-08-01T18:03:24;3.95;;;2.45;;
15831;SDS011;8016;49.928;9.372;2022-08-01T18:05:50;6.50;;;2.75;;
15831;SDS011;8016;49.928;9.372;2022-08-01T18:08:16;3.53;;;2.30;;
15831;SDS011;8016;49.928;9.372;2022-08-01T18:10:42;2.33;;;2.13;;
15831;SDS011;8016;49.928;9.372;2022-08-01T18:13:08;6.80;;;2.03;;
15831;SDS011;8016;49.928;9.372;2022-08-01T18:15:35;2.10;;;2.00;;
15831;SDS011;8016;49.928;9.372;2022-08-01T18:18:04;3.38;;;2.00;;
15831;SDS011;8016;49.928;9.372;2022-08-01T18:20:30;4.10;;;2.17;;
15831;SDS011;8016;49.928;9.372;2022-08-01T18:22:56;4.50;;;2.07;;
15831;SDS011;8016;49.928;9.372;2022-08-01T18:25:22;4.20;;;2.43;;
15831;SDS011;8016;49.928;9.372;2022-08-01T18:27:50;2.60;;;2.03;;
15831;SDS011;8016;49.928;9.372;2022-08-01T18:30:16;3.10;;;2.30;;
15831;SDS011;8016;49.928;9.372;2022-08-01T18:32:42;4.90;;;2.70;;
15831;SDS011;8016;49.928;9.372;2022-08-01T18:35:08;3.27;;;2.50;;
15831;SDS011;8016;49.928;9.372;2022-08-01T18:37:34;3.30;;;2.60;;
15831;SDS011;8016;49.928;9.372;2022-08-01T18:40:00;4.57;;;2.43;;
15831;SDS011;8016;49.928;9.372;2022-08-01T18:42:26;3.47;;;2.63;;
15831;SDS011;8016;49.928;9.372;2022-08-01T18:44:52;5.20;;;2.40;;
15831;SDS011;8016;49.928;9.372;2022-08-01T18:47:18;3.70;;;2.40;;
15831;SDS011;8016;49.928;9.372;2022-08-01T18:49:44;3.30;;;3.00;;
15831;SDS011;8016;49.928;9.372;2022-08-01T18:52:10;3.83;;;2.60;;
15831;SDS011;8016;49.928;9.372;2022-08-01T18:54:36;3.63;;;2.73;;
15831;SDS011;8016;49.928;9.372;2022-08-01T18:57:02;2.97;;;2.67;;
15831;SDS011;8016;49.928;9.372;2022-08-01T18:59:28;4.27;;;2.80;;
15831;SDS011;8016;49.928;9.372;2022-08-01T19:01:54;3.03;;;2.70;;
15831;SDS011;8016;49.928;9.372;2022-08-01T19:04:20;3.03;;;2.73;;
15831;SDS011;8016;49.928;9.372;2022-08-01T19:06:46;5.43;;;2.83;;
15831;SDS011;8016;49.928;9.372;2022-08-01T19:09:12;5.13;;;3.50;;
15831;SDS011;8016;49.928;9.372;2022-08-01T19:11:38;4.20;;;3.13;;
15831;SDS011;8016;49.928;9.372;2022-08-01T19:14:04;3.77;;;3.40;;
15831;SDS011;8016;49.928;9.372;2022-08-01T19:16:30;3.63;;;3.20;;
15831;SDS011;8016;49.928;9.372;2022-08-01T19:18:56;4.83;;;3.17;;
15831;SDS011;8016;49.928;9.372;2022-08-01T19:21:22;4.73;;;3.33;;
15831;SDS011;8016;49.928;9.372;2022-08-01T19:23:48;4.43;;;3.00;;
15831;SDS011;8016;49.928;9.372;2022-08-01T19:26:33;3.53;;;3.23;;
15831;SDS011;8016;49.928;9.372;2022-08-01T19:29:00;4.53;;;3.30;;
15831;SDS011;8016;49.928;9.372;2022-08-01T19:31:27;6.00;;;3.50;;
15831;SDS011;8016;49.928;9.372;2022-08-01T19:33:54;5.10;;;3.47;;
15831;SDS011;8016;49.928;9.372;2022-08-01T19:36:20;3.30;;;3.10;;
15831;SDS011;8016;49.928;9.372;2022-08-01T19:38:46;4.17;;;3.77;;
15831;SDS011;8016;49.928;9.372;2022-08-01T19:41:13;6.13;;;3.47;;
15831;SDS011;8016;49.928;9.372;2022-08-01T19:43:40;5.53;;;3.70;;
15831;SDS011;8016;49.928;9.372;2022-08-01T19:46:06;4.90;;;3.50;;
15831;SDS011;8016;49.928;9.372;2022-08-01T19:48:34;3.70;;;3.40;;
15831;SDS011;8016;49.928;9.372;2022-08-01T19:51:00;3.80;;;3.50;;
15831;SDS011;8016;49.928;9.372;2022-08-01T19:53:29;4.27;;;3.37;;
15831;SDS011;8016;49.928;9.372;2022-08-01T19:55:55;5.03;;;3.60;;
15831;SDS011;8016;49.928;9.372;2022-08-01T19:58:23;4.20;;;3.80;;
15831;SDS011;8016;49.928;9.372;2022-08-01T20:00:50;4.47;;;3.63;;
15831;SDS011;8016;49.928;9.372;2022-08-01T20:03:16;3.70;;;3.40;;